sensor_id;sensor_type;location;lat;lon;timestamp;P1;durP1;ratioP1;P2;durP2;ratioP2
6209;SDS011;3138;52.550;13.148;2022-08-21T00:00:20;19.53;;;12.77;;
6209;SDS011;3138;52.550;13.148;2022-08-21T00:02:50;12.23;;;10.87;;
6209;SDS011;3138;52.550;13.148;2022-08-21T00:05:18;15.93;;;12.50;;
6209;SDS011;3138;52.550;13.148;2022-08-21T00:07:45;19.27;;;11.67;;
6209;SDS011;3138;52.550;13.148;2022-08-21T00:10:12;20.03;;;12.70;;
6209;SDS011;3138;52.550;13.148;2022-08-21T00:12:40;14.07;;;11.83;;
6209;SDS011;3138;52.550;13.148;2022-08-21T00:15:09;19.07;;;12.80;;
6209;SDS011;3138;52.550;13.148;2022-08-21T00:17:38;18.20;;;12.00;;
6209;SDS011;3138;52.550;13.148;2022-08-21T00:20:06;13.80;;;11.07;;
6209;SDS011;3138;52.550;13.148;2022-08-21T00:22:35;15.33;;;11.50;;
6209;SDS011;3138;52.550;13.148;2022-08-21T00:25:02;12.27;;;11.00;;
6209;SDS011;3138;52.550;13.148;2022-08-21T00:27:31;22.80;;;11.30;;
6209;SDS011;3138;52.550;13.148;2022-08-21T00:29:57;17.27;;;12.50;;
6209;SDS011;3138;52.550;13.148;2022-08-21T00:32:25;13.00;;;10.50;;
6209;SDS011;3138;52.550;13.148;2022-08-21T00:34:54;22.53;;;13.47;;
6209;SDS011;3138;52.550;13.148;2022-08-21T00:37:21;21.80;;;12.53;;
6209;SDS011;3138;52.550;13.148;2022-08-21T00:39:48;15.60;;;11.33;;
6209;SDS011;3138;52.550;13.148;2022-08-21T00:42:15;15.20;;;11.70;;
6209;SDS011;3138;52.550;13.148;2022-08-21T00:44:42;14.63;;;11.10;;
6209;SDS011;3138;52.550;13.148;2022-08-21T00:47:10;14.47;;;12.00;;
6209;SDS011;3138;52.550;13.148;2022-08-21T00:49:38;13.47;;;11.83;;
6209;SDS011;3138;52.550;13.148;2022-08-21T00:52:07;21.40;;;12.77;;
6209;SDS011;3138;52.550;13.148;2022-08-21T00:54:37;16.70;;;10.47;;
6209;SDS011;3138;52.550;13.148;2022-08-21T00:57:07;22.10;;;13.30;;
6209;SDS011;3138;52.550;13.148;2022-08-21T00:59:38;12.60;;;11.40;;
6209;SDS011;3138;52.550;13.148;2022-08-21T01:02:08;14.40;;;11.70;;
6209;SDS011;3138;52.550;13.148;2022-08-21T01:04:35;14.33;;;11.33;;
6209;SDS011;3138;52.550;13.148;2022-08-21T01:07:02;16.23;;;11.40;;
6209;SDS011;3138;52.550;13.148;2022-08-21T01:09:30;16.20;;;12.10;;
6209;SDS011;3138;52.550;13.148;2022-08-21T01:11:58;15.00;;;11.17;;
6209;SDS011;3138;52.550;13.148;2022-08-21T01:14:25;13.03;;;10.90;;
6209;SDS011;3138;52.550;13.148;2022-08-21T01:16:53;13.93;;;11.40;;
6209;SDS011;3138;52.550;13.148;2022-08-21T01:19:21;17.03;;;11.57;;
6209;SDS011;3138;52.550;13.148;2022-08-21T01:21:50;13.50;;;11.90;;
6209;SDS011;3138;52.550;13.148;2022-08-21T01:24:17;12.73;;;11.00;;
6209;SDS011;3138;52.550;13.148;2022-08-21T01:26:44;17.80;;;11.20;;
6209;SDS011;3138;52.550;13.148;2022-08-21T01:29:13;31.60;;;12.17;;
6209;SDS011;3138;52.550;13.148;2022-08-21T01:31:42;16.70;;;11.13;;
6209;SDS011;3138;52.550;13.148;2022-08-21T01:34:11;15.00;;;11.50;;
6209;SDS011;3138;52.550;13.148;2022-08-21T01:36:40;20.90;;;11.73;;
6209;SDS011;3138;52.550;13.148;2022-08-21T01:39:09;17.17;;;12.57;;
6209;SDS011;3138;52.550;13.148;2022-08-21T01:41:36;13.77;;;9.80;;
6209;SDS011;3138;52.550;13.148;2022-08-21T01:44:03;14.83;;;9.30;;
6209;SDS011;3138;52.550;13.148;2022-08-21T01:46:30;16.40;;;9.10;;
6209;SDS011;3138;52.550;13.148;2022-08-21T01:48:57;14.80;;;10.00;;
6209;SDS011;3138;52.550;13.148;2022-08-21T01:51:24;10.50;;;9.30;;
6209;SDS011;3138;52.550;13.148;2022-08-21T01:53:51;10.23;;;9.30;;
6209;SDS011;3138;52.550;13.148;2022-08-21T01:56:19;16.03;;;9.37;;
6209;SDS011;3138;52.550;13.148;2022-08-21T01:58:46;17.77;;;8.77;;
6209;SDS011;3138;52.550;13.148;2022-08-21T02:01:14;8.47;;;7.33;;
6209;SDS011;3138;52.550;13.148;2022-08-21T02:03:41;23.93;;;8.20;;
6209;SDS011;3138;52.550;13.148;2022-08-21T02:06:11;23.40;;;8.27;;
6209;SDS011;3138;52.550;13.148;2022-08-21T02:08:39;15.80;;;7.87;;
6209;SDS011;3138;52.550;13.148;2022-08-21T02:11:06;8.33;;;6.80;;
6209;SDS011;3138;52.550;13.148;2022-08-21T02:13:34;9.70;;;7.73;;
6209;SDS011;3138;52.550;13.148;2022-08-21T02:16:01;14.93;;;7.70;;
6209;SDS011;3138;52.550;13.148;2022-08-21T02:18:28;10.80;;;7.90;;
6209;SDS011;3138;52.550;13.148;2022-08-21T02:20:55;10.67;;;7.00;;
6209;SDS011;3138;52.550;13.148;2022-08-21T02:23:22;11.33;;;7.03;;
6209;SDS011;3138;52.550;13.148;2022-08-21T02:25:50;13.70;;;7.40;;
6209;SDS011;3138;52.550;13.148;2022-08-21T02:28:17;19.20;;;7.83;;
6209;SDS011;3138;52.550;13.148;2022-08-21T02:30:46;9.30;;;6.93;;
6209;SDS011;3138;52.550;13.148;2022-08-21T02:33:13;11.00;;;8.93;;
6209;SDS011;3138;52.550;13.148;2022-08-21T02:35:41;8.30;;;7.50;;
6209;SDS011;3138;52.550;13.148;2022-08-21T02:38:09;8.27;;;7.43;;
6209;SDS011;3138;52.550;13.148;2022-08-21T02:40:38;18.33;;;8.33;;
6209;SDS011;3138;52.550;13.148;2022-08-21T02:43:07;14.40;;;7.50;;
6209;SDS011;3138;52.550;13.148;2022-08-21T02:45:34;18.20;;;7.60;;
6209;SDS011;3138;52.550;13.148;2022-08-21T02:48:04;11.20;;;7.93;;
6209;SDS011;3138;52.550;13.148;2022-08-21T02:50:37;21.00;;;7.60;;
6209;SDS011;3138;52.550;13.148;2022-08-21T02:53:05;16.43;;;8.77;;
6209;SDS011;3138;52.550;13.148;2022-08-21T02:55:34;21.93;;;6.93;;
6209;SDS011;3138;52.550;13.148;2022-08-21T02:58:03;14.83;;;7.67;;
6209;SDS011;3138;52.550;13.148;2022-08-21T03:00:33;11.03;;;6.83;;
6209;SDS011;3138;52.550;13.148;2022-08-21T03:03:03;11.80;;;6.87;;
6209;SDS011;3138;52.550;13.148;2022-08-21T03:05:31;18.40;;;7.43;;
6209;SDS011;3138;52.550;13.148;2022-08-21T03:07:59;8.17;;;7.20;;
6209;SDS011;3138;52.550;13.148;2022-08-21T03:10:27;14.93;;;7.70;;
6209;SDS011;3138;52.550;13.148;2022-08-21T03:12:55;15.83;;;7.30;;
6209;SDS011;3138;52.550;13.148;2022-08-21T03:15:23;11.60;;;6.80;;
6209;SDS011;3138;52.550;13.148;2022-08-21T03:17:50;27.47;;;6.50;;
6209;SDS011;3138;52.550;13.148;2022-08-21T03:20:21;9.73;;;6.30;;
6209;SDS011;3138;52.550;13.148;2022-08-21T03:22:49;19.00;;;6.80;;
6209;SDS011;3138;52.550;13.148;2022-08-21T03:25:16;15.73;;;6.43;;
6209;SDS011;3138;52.550;13.148;2022-08-21T03:27:44;8.93;;;6.50;;
6209;SDS011;3138;52.550;13.148;2022-08-21T03:30:11;23.70;;;7.00;;
6209;SDS011;3138;52.550;13.148;2022-08-21T03:32:39;9.50;;;6.80;;
6209;SDS011;3138;52.550;13.148;2022-08-21T03:35:06;8.97;;;5.97;;
6209;SDS011;3138;52.550;13.148;2022-08-21T03:37:35;18.40;;;6.90;;
6209;SDS011;3138;52.550;13.148;2022-08-21T03:40:02;12.90;;;7.00;;
6209;SDS011;3138;52.550;13.148;2022-08-21T03:42:29;22.20;;;7.40;;
6209;SDS011;3138;52.550;13.148;2022-08-21T03:44:56;11.33;;;5.73;;
6209;SDS011;3138;52.550;13.148;2022-08-21T03:47:23;12.27;;;6.50;;
6209;SDS011;3138;52.550;13.148;2022-08-21T03:49:50;15.67;;;7.70;;
6209;SDS011;3138;52.550;13.148;2022-08-21T03:52:17;10.80;;;6.90;;
6209;SDS011;3138;52.550;13.148;2022-08-21T03:54:46;13.80;;;6.93;;
6209;SDS011;3138;52.550;13.148;2022-08-21T03:57:13;13.73;;;5.40;;
6209;SDS011;3138;52.550;13.148;2022-08-21T03:59:40;8.67;;;6.40;;
6209;SDS011;3138;52.550;13.148;2022-08-21T04:02:07;11.97;;;6.40;;
6209;SDS011;3138;52.550;13.148;2022-08-21T04:04:35;10.30;;;5.67;;
6209;SDS011;3138;52.550;13.148;2022-08-21T04:07:03;17.90;;;5.90;;
6209;SDS011;3138;52.550;13.148;2022-08-21T04:09:31;16.33;;;6.40;;
6209;SDS011;3138;52.550;13.148;2022-08-21T04:11:59;11.07;;;6.27;;
6209;SDS011;3138;52.550;13.148;2022-08-21T04:14:28;12.77;;;6.43;;
6209;SDS011;3138;52.550;13.148;2022-08-21T04:16:55;9.60;;;5.50;;
6209;SDS011;3138;52.550;13.148;2022-08-21T04:19:22;9.93;;;6.07;;
6209;SDS011;3138;52.550;13.148;2022-08-21T04:21:49;11.10;;;5.17;;
6209;SDS011;3138;52.550;13.148;2022-08-21T04:24:15;19.63;;;7.27;;
6209;SDS011;3138;52.550;13.148;2022-08-21T04:26:42;14.60;;;6.20;;
6209;SDS011;3138;52.550;13.148;2022-08-21T04:29:10;17.27;;;5.30;;
6209;SDS011;3138;52.550;13.148;2022-08-21T04:31:37;26.23;;;6.03;;
6209;SDS011;3138;52.550;13.148;2022-08-21T04:34:04;18.40;;;5.17;;
6209;SDS011;3138;52.550;13.148;2022-08-21T04:36:31;14.57;;;5.30;;
6209;SDS011;3138;52.550;13.148;2022-08-21T04:38:59;13.30;;;5.10;;
6209;SDS011;3138;52.550;13.148;2022-08-21T04:41:26;14.97;;;5.63;;
6209;SDS011;3138;52.550;13.148;2022-08-21T04:43:54;15.07;;;5.80;;
6209;SDS011;3138;52.550;13.148;2022-08-21T04:46:22;13.57;;;5.50;;
6209;SDS011;3138;52.550;13.148;2022-08-21T04:48:49;10.43;;;6.13;;
6209;SDS011;3138;52.550;13.148;2022-08-21T04:51:17;12.00;;;5.77;;
6209;SDS011;3138;52.550;13.148;2022-08-21T04:53:50;13.23;;;5.63;;
6209;SDS011;3138;52.550;13.148;2022-08-21T04:56:20;8.23;;;4.37;;
6209;SDS011;3138;52.550;13.148;2022-08-21T04:58:49;18.30;;;5.83;;
6209;SDS011;3138;52.550;13.148;2022-08-21T05:01:19;9.30;;;5.00;;
6209;SDS011;3138;52.550;13.148;2022-08-21T05:03:51;7.20;;;5.03;;
6209;SDS011;3138;52.550;13.148;2022-08-21T05:06:21;17.13;;;5.63;;
6209;SDS011;3138;52.550;13.148;2022-08-21T05:08:50;8.30;;;5.57;;
6209;SDS011;3138;52.550;13.148;2022-08-21T05:11:19;11.03;;;4.93;;
6209;SDS011;3138;52.550;13.148;2022-08-21T05:13:47;10.03;;;4.80;;
6209;SDS011;3138;52.550;13.148;2022-08-21T05:16:13;13.10;;;5.23;;
6209;SDS011;3138;52.550;13.148;2022-08-21T05:18:42;19.20;;;5.57;;
6209;SDS011;3138;52.550;13.148;2022-08-21T05:21:09;28.73;;;4.87;;
6209;SDS011;3138;52.550;13.148;2022-08-21T05:23:36;26.93;;;4.83;;
6209;SDS011;3138;52.550;13.148;2022-08-21T05:26:03;11.80;;;5.37;;
6209;SDS011;3138;52.550;13.148;2022-08-21T05:28:30;11.57;;;4.40;;
6209;SDS011;3138;52.550;13.148;2022-08-21T05:30:57;13.27;;;4.60;;
6209;SDS011;3138;52.550;13.148;2022-08-21T05:33:24;13.23;;;4.27;;
6209;SDS011;3138;52.550;13.148;2022-08-21T05:35:52;12.80;;;4.43;;
6209;SDS011;3138;52.550;13.148;2022-08-21T05:38:20;14.80;;;5.00;;
6209;SDS011;3138;52.550;13.148;2022-08-21T05:40:47;14.43;;;4.47;;
6209;SDS011;3138;52.550;13.148;2022-08-21T05:43:14;28.33;;;4.17;;
6209;SDS011;3138;52.550;13.148;2022-08-21T05:45:42;19.93;;;4.37;;
6209;SDS011;3138;52.550;13.148;2022-08-21T05:48:09;13.57;;;4.17;;
6209;SDS011;3138;52.550;13.148;2022-08-21T05:50:38;15.13;;;4.10;;
6209;SDS011;3138;52.550;13.148;2022-08-21T05:53:06;18.80;;;5.63;;
6209;SDS011;3138;52.550;13.148;2022-08-21T05:55:35;19.37;;;4.90;;
6209;SDS011;3138;52.550;13.148;2022-08-21T05:58:02;24.47;;;4.00;;
6209;SDS011;3138;52.550;13.148;2022-08-21T06:00:29;25.50;;;4.30;;
6209;SDS011;3138;52.550;13.148;2022-08-21T06:02:57;8.63;;;3.50;;
6209;SDS011;3138;52.550;13.148;2022-08-21T06:05:23;23.33;;;4.60;;
6209;SDS011;3138;52.550;13.148;2022-08-21T06:07:51;9.63;;;3.93;;
6209;SDS011;3138;52.550;13.148;2022-08-21T06:10:20;15.93;;;5.00;;
6209;SDS011;3138;52.550;13.148;2022-08-21T06:12:47;9.77;;;4.20;;
6209;SDS011;3138;52.550;13.148;2022-08-21T06:15:21;15.07;;;4.10;;
6209;SDS011;3138;52.550;13.148;2022-08-21T06:17:47;11.20;;;4.00;;
6209;SDS011;3138;52.550;13.148;2022-08-21T06:20:14;17.53;;;3.63;;
6209;SDS011;3138;52.550;13.148;2022-08-21T06:22:41;8.37;;;3.83;;
6209;SDS011;3138;52.550;13.148;2022-08-21T06:25:08;20.47;;;4.43;;
6209;SDS011;3138;52.550;13.148;2022-08-21T06:27:36;8.20;;;3.70;;
6209;SDS011;3138;52.550;13.148;2022-08-21T06:30:04;9.23;;;3.63;;
6209;SDS011;3138;52.550;13.148;2022-08-21T06:32:31;6.10;;;4.07;;
6209;SDS011;3138;52.550;13.148;2022-08-21T06:34:58;11.10;;;3.50;;
6209;SDS011;3138;52.550;13.148;2022-08-21T06:37:25;6.80;;;3.00;;
6209;SDS011;3138;52.550;13.148;2022-08-21T06:39:52;22.13;;;3.70;;
6209;SDS011;3138;52.550;13.148;2022-08-21T06:42:19;10.33;;;4.40;;
6209;SDS011;3138;52.550;13.148;2022-08-21T06:44:47;13.13;;;4.13;;
6209;SDS011;3138;52.550;13.148;2022-08-21T06:47:14;12.63;;;4.70;;
6209;SDS011;3138;52.550;13.148;2022-08-21T06:49:41;14.73;;;4.07;;
6209;SDS011;3138;52.550;13.148;2022-08-21T06:52:08;21.23;;;4.27;;
6209;SDS011;3138;52.550;13.148;2022-08-21T06:54:36;14.53;;;4.20;;
6209;SDS011;3138;52.550;13.148;2022-08-21T06:57:04;12.90;;;4.67;;
6209;SDS011;3138;52.550;13.148;2022-08-21T06:59:31;13.07;;;3.90;;
6209;SDS011;3138;52.550;13.148;2022-08-21T07:01:59;12.60;;;3.77;;
6209;SDS011;3138;52.550;13.148;2022-08-21T07:04:26;15.10;;;3.70;;
6209;SDS011;3138;52.550;13.148;2022-08-21T07:06:53;9.20;;;3.60;;
6209;SDS011;3138;52.550;13.148;2022-08-21T07:09:19;9.40;;;3.77;;
6209;SDS011;3138;52.550;13.148;2022-08-21T07:11:47;29.70;;;3.30;;
6209;SDS011;3138;52.550;13.148;2022-08-21T07:14:17;24.43;;;3.10;;
6209;SDS011;3138;52.550;13.148;2022-08-21T07:16:44;9.50;;;2.80;;
6209;SDS011;3138;52.550;13.148;2022-08-21T07:19:12;11.80;;;3.20;;
6209;SDS011;3138;52.550;13.148;2022-08-21T07:21:39;18.50;;;3.80;;
6209;SDS011;3138;52.550;13.148;2022-08-21T07:24:06;13.13;;;3.30;;
6209;SDS011;3138;52.550;13.148;2022-08-21T07:26:32;12.77;;;3.80;;
6209;SDS011;3138;52.550;13.148;2022-08-21T07:28:59;10.40;;;2.73;;
6209;SDS011;3138;52.550;13.148;2022-08-21T07:31:26;9.43;;;2.83;;
6209;SDS011;3138;52.550;13.148;2022-08-21T07:33:54;15.10;;;3.10;;
6209;SDS011;3138;52.550;13.148;2022-08-21T07:36:22;14.67;;;2.63;;
6209;SDS011;3138;52.550;13.148;2022-08-21T07:38:49;4.37;;;2.97;;
6209;SDS011;3138;52.550;13.148;2022-08-21T07:41:17;10.80;;;3.10;;
6209;SDS011;3138;52.550;13.148;2022-08-21T07:43:45;6.80;;;2.27;;
6209;SDS011;3138;52.550;13.148;2022-08-21T07:46:12;6.37;;;2.60;;
6209;SDS011;3138;52.550;13.148;2022-08-21T07:48:39;3.50;;;2.27;;
6209;SDS011;3138;52.550;13.148;2022-08-21T07:51:07;14.23;;;2.67;;
6209;SDS011;3138;52.550;13.148;2022-08-21T07:53:38;14.73;;;2.30;;
6209;SDS011;3138;52.550;13.148;2022-08-21T07:56:06;20.27;;;3.00;;
6209;SDS011;3138;52.550;13.148;2022-08-21T07:58:36;13.60;;;3.03;;
6209;SDS011;3138;52.550;13.148;2022-08-21T08:01:02;20.60;;;3.60;;
6209;SDS011;3138;52.550;13.148;2022-08-21T08:03:30;7.47;;;2.40;;
6209;SDS011;3138;52.550;13.148;2022-08-21T08:05:57;11.77;;;3.30;;
6209;SDS011;3138;52.550;13.148;2022-08-21T08:08:25;22.23;;;3.03;;
6209;SDS011;3138;52.550;13.148;2022-08-21T08:10:53;19.67;;;3.30;;
6209;SDS011;3138;52.550;13.148;2022-08-21T08:13:24;15.03;;;2.50;;
6209;SDS011;3138;52.550;13.148;2022-08-21T08:15:51;10.93;;;3.23;;
6209;SDS011;3138;52.550;13.148;2022-08-21T08:18:17;11.33;;;2.63;;
6209;SDS011;3138;52.550;13.148;2022-08-21T08:20:44;10.33;;;3.20;;
6209;SDS011;3138;52.550;13.148;2022-08-21T08:23:11;8.80;;;2.90;;
6209;SDS011;3138;52.550;13.148;2022-08-21T08:25:39;11.73;;;2.43;;
6209;SDS011;3138;52.550;13.148;2022-08-21T08:28:07;10.13;;;3.07;;
6209;SDS011;3138;52.550;13.148;2022-08-21T08:30:34;7.60;;;2.37;;
6209;SDS011;3138;52.550;13.148;2022-08-21T08:33:01;15.07;;;2.70;;
6209;SDS011;3138;52.550;13.148;2022-08-21T08:35:29;5.60;;;2.83;;
6209;SDS011;3138;52.550;13.148;2022-08-21T08:37:56;9.13;;;3.10;;
6209;SDS011;3138;52.550;13.148;2022-08-21T08:40:26;6.13;;;2.70;;
6209;SDS011;3138;52.550;13.148;2022-08-21T08:42:58;8.67;;;2.50;;
6209;SDS011;3138;52.550;13.148;2022-08-21T08:45:26;11.80;;;2.23;;
6209;SDS011;3138;52.550;13.148;2022-08-21T08:47:58;6.00;;;2.83;;
6209;SDS011;3138;52.550;13.148;2022-08-21T08:50:38;15.00;;;3.03;;
6209;SDS011;3138;52.550;13.148;2022-08-21T08:53:08;17.23;;;3.10;;
6209;SDS011;3138;52.550;13.148;2022-08-21T08:55:41;14.10;;;3.13;;
6209;SDS011;3138;52.550;13.148;2022-08-21T08:58:10;8.30;;;2.70;;
6209;SDS011;3138;52.550;13.148;2022-08-21T09:00:43;9.77;;;3.30;;
6209;SDS011;3138;52.550;13.148;2022-08-21T09:03:15;10.30;;;3.40;;
6209;SDS011;3138;52.550;13.148;2022-08-21T09:05:43;7.80;;;1.90;;
6209;SDS011;3138;52.550;13.148;2022-08-21T09:08:20;12.33;;;2.40;;
6209;SDS011;3138;52.550;13.148;2022-08-21T09:10:57;4.17;;;2.43;;
6209;SDS011;3138;52.550;13.148;2022-08-21T09:13:31;7.93;;;2.43;;
6209;SDS011;3138;52.550;13.148;2022-08-21T09:16:10;6.80;;;2.13;;
6209;SDS011;3138;52.550;13.148;2022-08-21T09:18:50;8.50;;;1.70;;
6209;SDS011;3138;52.550;13.148;2022-08-21T09:21:28;12.03;;;2.30;;
6209;SDS011;3138;52.550;13.148;2022-08-21T09:26:57;9.63;;;2.63;;
6209;SDS011;3138;52.550;13.148;2022-08-21T09:29:31;7.30;;;2.30;;
6209;SDS011;3138;52.550;13.148;2022-08-21T09:32:02;6.50;;;2.67;;
6209;SDS011;3138;52.550;13.148;2022-08-21T09:34:33;3.07;;;1.70;;
6209;SDS011;3138;52.550;13.148;2022-08-21T09:37:01;7.90;;;1.90;;
6209;SDS011;3138;52.550;13.148;2022-08-21T09:39:29;3.17;;;2.00;;
6209;SDS011;3138;52.550;13.148;2022-08-21T09:41:58;5.90;;;2.17;;
6209;SDS011;3138;52.550;13.148;2022-08-21T09:44:27;11.63;;;2.60;;
6209;SDS011;3138;52.550;13.148;2022-08-21T09:46:56;6.83;;;2.00;;
6209;SDS011;3138;52.550;13.148;2022-08-21T09:49:29;10.73;;;2.53;;
6209;SDS011;3138;52.550;13.148;2022-08-21T09:51:57;11.17;;;2.53;;
6209;SDS011;3138;52.550;13.148;2022-08-21T09:54:26;9.47;;;3.00;;
6209;SDS011;3138;52.550;13.148;2022-08-21T09:56:56;7.27;;;2.77;;
6209;SDS011;3138;52.550;13.148;2022-08-21T09:59:42;14.57;;;2.70;;
6209;SDS011;3138;52.550;13.148;2022-08-21T10:04:58;8.07;;;2.93;;
6209;SDS011;3138;52.550;13.148;2022-08-21T10:07:27;9.87;;;2.83;;
6209;SDS011;3138;52.550;13.148;2022-08-21T10:09:59;12.70;;;2.97;;
6209;SDS011;3138;52.550;13.148;2022-08-21T10:12:30;6.60;;;2.30;;
6209;SDS011;3138;52.550;13.148;2022-08-21T10:15:08;6.53;;;1.83;;
6209;SDS011;3138;52.550;13.148;2022-08-21T10:17:44;5.70;;;2.50;;
6209;SDS011;3138;52.550;13.148;2022-08-21T10:20:22;7.50;;;2.90;;
6209;SDS011;3138;52.550;13.148;2022-08-21T10:22:56;6.73;;;2.37;;
6209;SDS011;3138;52.550;13.148;2022-08-21T10:25:35;10.30;;;2.87;;
6209;SDS011;3138;52.550;13.148;2022-08-21T10:28:07;6.53;;;2.10;;
6209;SDS011;3138;52.550;13.148;2022-08-21T10:30:42;13.27;;;2.50;;
6209;SDS011;3138;52.550;13.148;2022-08-21T10:33:25;3.60;;;2.20;;
6209;SDS011;3138;52.550;13.148;2022-08-21T10:36:02;5.40;;;2.30;;
6209;SDS011;3138;52.550;13.148;2022-08-21T10:38:49;9.13;;;2.20;;
6209;SDS011;3138;52.550;13.148;2022-08-21T10:41:30;6.90;;;2.17;;
6209;SDS011;3138;52.550;13.148;2022-08-21T10:44:08;12.30;;;2.60;;
6209;SDS011;3138;52.550;13.148;2022-08-21T10:46:47;7.03;;;2.77;;
6209;SDS011;3138;52.550;13.148;2022-08-21T10:49:22;7.43;;;2.43;;
6209;SDS011;3138;52.550;13.148;2022-08-21T10:52:01;8.53;;;2.00;;
6209;SDS011;3138;52.550;13.148;2022-08-21T10:54:41;6.60;;;1.90;;
6209;SDS011;3138;52.550;13.148;2022-08-21T10:57:19;5.90;;;1.77;;
6209;SDS011;3138;52.550;13.148;2022-08-21T10:59:55;5.73;;;1.60;;
6209;SDS011;3138;52.550;13.148;2022-08-21T11:02:26;15.70;;;2.03;;
6209;SDS011;3138;52.550;13.148;2022-08-21T11:04:59;9.73;;;2.17;;
6209;SDS011;3138;52.550;13.148;2022-08-21T11:07:33;7.80;;;2.10;;
6209;SDS011;3138;52.550;13.148;2022-08-21T11:10:03;5.97;;;1.87;;
6209;SDS011;3138;52.550;13.148;2022-08-21T11:12:39;3.43;;;2.30;;
6209;SDS011;3138;52.550;13.148;2022-08-21T11:15:11;14.00;;;3.73;;
6209;SDS011;3138;52.550;13.148;2022-08-21T11:17:51;5.57;;;1.83;;
6209;SDS011;3138;52.550;13.148;2022-08-21T11:20:26;10.97;;;2.30;;
6209;SDS011;3138;52.550;13.148;2022-08-21T11:22:58;10.07;;;2.50;;
6209;SDS011;3138;52.550;13.148;2022-08-21T11:25:32;8.60;;;2.87;;
6209;SDS011;3138;52.550;13.148;2022-08-21T11:28:02;5.33;;;2.20;;
6209;SDS011;3138;52.550;13.148;2022-08-21T11:30:40;10.20;;;2.10;;
6209;SDS011;3138;52.550;13.148;2022-08-21T11:33:20;3.63;;;1.70;;
6209;SDS011;3138;52.550;13.148;2022-08-21T11:36:00;5.07;;;1.80;;
6209;SDS011;3138;52.550;13.148;2022-08-21T11:38:38;2.23;;;1.90;;
6209;SDS011;3138;52.550;13.148;2022-08-21T11:41:15;7.50;;;2.00;;
6209;SDS011;3138;52.550;13.148;2022-08-21T11:43:50;10.57;;;2.70;;
6209;SDS011;3138;52.550;13.148;2022-08-21T11:46:28;6.30;;;1.90;;
6209;SDS011;3138;52.550;13.148;2022-08-21T11:49:06;9.00;;;2.70;;
6209;SDS011;3138;52.550;13.148;2022-08-21T11:51:45;6.83;;;2.00;;
6209;SDS011;3138;52.550;13.148;2022-08-21T11:54:20;4.53;;;2.10;;
6209;SDS011;3138;52.550;13.148;2022-08-21T11:56:53;17.30;;;2.70;;
6209;SDS011;3138;52.550;13.148;2022-08-21T11:59:26;4.00;;;2.00;;
6209;SDS011;3138;52.550;13.148;2022-08-21T12:01:58;13.00;;;2.27;;
6209;SDS011;3138;52.550;13.148;2022-08-21T12:04:27;10.33;;;2.33;;
6209;SDS011;3138;52.550;13.148;2022-08-21T12:06:56;12.60;;;2.57;;
6209;SDS011;3138;52.550;13.148;2022-08-21T12:09:39;6.50;;;2.37;;
6209;SDS011;3138;52.550;13.148;2022-08-21T12:12:11;9.70;;;2.90;;
6209;SDS011;3138;52.550;13.148;2022-08-21T12:14:40;13.90;;;2.03;;
6209;SDS011;3138;52.550;13.148;2022-08-21T12:17:09;12.70;;;2.40;;
6209;SDS011;3138;52.550;13.148;2022-08-21T12:19:56;7.90;;;2.80;;
6209;SDS011;3138;52.550;13.148;2022-08-21T12:22:24;6.43;;;2.70;;
6209;SDS011;3138;52.550;13.148;2022-08-21T12:25:06;8.23;;;2.13;;
6209;SDS011;3138;52.550;13.148;2022-08-21T12:27:41;8.07;;;3.00;;
6209;SDS011;3138;52.550;13.148;2022-08-21T12:30:19;6.77;;;2.90;;
6209;SDS011;3138;52.550;13.148;2022-08-21T12:32:54;9.77;;;2.00;;
6209;SDS011;3138;52.550;13.148;2022-08-21T12:35:23;10.00;;;2.60;;
6209;SDS011;3138;52.550;13.148;2022-08-21T12:37:55;10.47;;;2.50;;
6209;SDS011;3138;52.550;13.148;2022-08-21T12:40:31;9.10;;;2.93;;
6209;SDS011;3138;52.550;13.148;2022-08-21T12:43:03;7.70;;;2.80;;
6209;SDS011;3138;52.550;13.148;2022-08-21T12:45:31;8.10;;;2.67;;
6209;SDS011;3138;52.550;13.148;2022-08-21T12:48:01;8.93;;;2.57;;
6209;SDS011;3138;52.550;13.148;2022-08-21T12:50:36;9.80;;;3.00;;
6209;SDS011;3138;52.550;13.148;2022-08-21T12:53:07;10.73;;;2.93;;
6209;SDS011;3138;52.550;13.148;2022-08-21T12:55:41;17.23;;;3.40;;
6209;SDS011;3138;52.550;13.148;2022-08-21T12:58:16;10.33;;;1.93;;
6209;SDS011;3138;52.550;13.148;2022-08-21T13:00:47;9.50;;;2.70;;
6209;SDS011;3138;52.550;13.148;2022-08-21T13:03:16;6.87;;;2.73;;
6209;SDS011;3138;52.550;13.148;2022-08-21T13:05:43;5.17;;;2.77;;
6209;SDS011;3138;52.550;13.148;2022-08-21T13:08:10;7.07;;;2.37;;
6209;SDS011;3138;52.550;13.148;2022-08-21T13:10:39;5.63;;;2.00;;
6209;SDS011;3138;52.550;13.148;2022-08-21T13:13:10;13.50;;;2.73;;
6209;SDS011;3138;52.550;13.148;2022-08-21T13:15:42;10.27;;;3.70;;
6209;SDS011;3138;52.550;13.148;2022-08-21T13:18:18;15.30;;;3.10;;
6209;SDS011;3138;52.550;13.148;2022-08-21T13:20:47;16.43;;;2.63;;
6209;SDS011;3138;52.550;13.148;2022-08-21T13:23:19;5.60;;;3.07;;
6209;SDS011;3138;52.550;13.148;2022-08-21T13:25:50;12.53;;;2.93;;
6209;SDS011;3138;52.550;13.148;2022-08-21T13:28:17;13.70;;;3.30;;
6209;SDS011;3138;52.550;13.148;2022-08-21T13:30:45;12.30;;;2.80;;
6209;SDS011;3138;52.550;13.148;2022-08-21T13:33:15;10.80;;;3.40;;
6209;SDS011;3138;52.550;13.148;2022-08-21T13:35:48;5.07;;;2.17;;
6209;SDS011;3138;52.550;13.148;2022-08-21T13:38:17;7.13;;;2.53;;
6209;SDS011;3138;52.550;13.148;2022-08-21T13:40:47;9.87;;;2.87;;
6209;SDS011;3138;52.550;13.148;2022-08-21T13:43:17;6.37;;;2.67;;
6209;SDS011;3138;52.550;13.148;2022-08-21T13:45:48;26.93;;;3.13;;
6209;SDS011;3138;52.550;13.148;2022-08-21T13:48:17;11.23;;;2.07;;
6209;SDS011;3138;52.550;13.148;2022-08-21T13:50:45;8.40;;;2.57;;
6209;SDS011;3138;52.550;13.148;2022-08-21T13:53:20;11.37;;;2.23;;
6209;SDS011;3138;52.550;13.148;2022-08-21T13:55:49;12.00;;;2.37;;
6209;SDS011;3138;52.550;13.148;2022-08-21T13:58:25;4.90;;;2.90;;
6209;SDS011;3138;52.550;13.148;2022-08-21T14:00:53;10.80;;;3.30;;
6209;SDS011;3138;52.550;13.148;2022-08-21T14:03:31;10.97;;;2.30;;
6209;SDS011;3138;52.550;13.148;2022-08-21T14:06:00;8.30;;;2.50;;
6209;SDS011;3138;52.550;13.148;2022-08-21T14:08:29;10.03;;;3.50;;
6209;SDS011;3138;52.550;13.148;2022-08-21T14:10:59;9.50;;;3.40;;
6209;SDS011;3138;52.550;13.148;2022-08-21T14:13:34;9.50;;;3.23;;
6209;SDS011;3138;52.550;13.148;2022-08-21T14:16:10;12.43;;;3.10;;
6209;SDS011;3138;52.550;13.148;2022-08-21T14:18:43;16.00;;;2.70;;
6209;SDS011;3138;52.550;13.148;2022-08-21T14:21:12;10.03;;;2.83;;
6209;SDS011;3138;52.550;13.148;2022-08-21T14:23:38;5.60;;;2.07;;
6209;SDS011;3138;52.550;13.148;2022-08-21T14:26:06;12.47;;;3.43;;
6209;SDS011;3138;52.550;13.148;2022-08-21T14:28:37;9.43;;;3.17;;
6209;SDS011;3138;52.550;13.148;2022-08-21T14:31:13;7.90;;;2.67;;
6209;SDS011;3138;52.550;13.148;2022-08-21T14:33:42;9.60;;;3.30;;
6209;SDS011;3138;52.550;13.148;2022-08-21T14:36:09;10.97;;;2.80;;
6209;SDS011;3138;52.550;13.148;2022-08-21T14:38:37;10.03;;;3.47;;
6209;SDS011;3138;52.550;13.148;2022-08-21T14:41:08;8.80;;;2.50;;
6209;SDS011;3138;52.550;13.148;2022-08-21T14:43:43;7.33;;;3.17;;
6209;SDS011;3138;52.550;13.148;2022-08-21T14:46:10;8.03;;;2.43;;
6209;SDS011;3138;52.550;13.148;2022-08-21T14:48:38;13.80;;;2.83;;
6209;SDS011;3138;52.550;13.148;2022-08-21T14:51:05;7.23;;;2.20;;
6209;SDS011;3138;52.550;13.148;2022-08-21T14:53:32;7.37;;;2.77;;
6209;SDS011;3138;52.550;13.148;2022-08-21T14:55:59;12.73;;;2.50;;
6209;SDS011;3138;52.550;13.148;2022-08-21T14:58:32;9.67;;;2.93;;
6209;SDS011;3138;52.550;13.148;2022-08-21T15:01:02;6.53;;;2.80;;
6209;SDS011;3138;52.550;13.148;2022-08-21T15:03:30;8.93;;;2.70;;
6209;SDS011;3138;52.550;13.148;2022-08-21T15:05:57;5.80;;;2.23;;
6209;SDS011;3138;52.550;13.148;2022-08-21T15:08:25;9.87;;;3.17;;
6209;SDS011;3138;52.550;13.148;2022-08-21T15:10:52;17.40;;;2.90;;